sensor_id;sensor_type;location;lat;lon;timestamp;temperature;humidity
46720;DHT22;32452;51.382;-0.002;2023-08-31T00:02:32;14.70;88.10
46720;DHT22;32452;51.382;-0.002;2023-08-31T00:05:19;14.70;88.30
46720;DHT22;32452;51.382;-0.002;2023-08-31T00:08:12;14.70;88.60
46720;DHT22;32452;51.382;-0.002;2023-08-31T00:10:59;14.70;88.90
46720;DHT22;32452;51.382;-0.002;2023-08-31T00:13:49;14.70;89.00
46720;DHT22;32452;51.382;-0.002;2023-08-31T00:16:35;14.70;89.30
46720;DHT22;32452;51.382;-0.002;2023-08-31T00:19:22;14.60;89.40
46720;DHT22;32452;51.382;-0.002;2023-08-31T00:22:07;14.60;89.70
46720;DHT22;32452;51.382;-0.002;2023-08-31T00:25:00;14.50;89.90
46720;DHT22;32452;51.382;-0.002;2023-08-31T00:27:59;14.50;90.00
46720;DHT22;32452;51.382;-0.002;2023-08-31T00:30:49;14.50;90.10
46720;DHT22;32452;51.382;-0.002;2023-08-31T00:33:38;14.40;90.20
46720;DHT22;32452;51.382;-0.002;2023-08-31T00:36:47;14.40;90.30
46720;DHT22;32452;51.382;-0.002;2023-08-31T00:39:40;14.30;90.40
46720;DHT22;32452;51.382;-0.002;2023-08-31T00:42:25;14.30;90.50
46720;DHT22;32452;51.382;-0.002;2023-08-31T00:45:11;14.30;90.60
46720;DHT22;32452;51.382;-0.002;2023-08-31T00:47:57;14.20;90.70
46720;DHT22;32452;51.382;-0.002;2023-08-31T00:50:46;14.20;90.90
46720;DHT22;32452;51.382;-0.002;2023-08-31T00:53:35;14.20;90.90
46720;DHT22;32452;51.382;-0.002;2023-08-31T00:56:30;14.10;90.90
46720;DHT22;32452;51.382;-0.002;2023-08-31T00:59:29;14.10;91.00
46720;DHT22;32452;51.382;-0.002;2023-08-31T01:02:22;14.10;91.10
46720;DHT22;32452;51.382;-0.002;2023-08-31T01:05:25;14.10;91.30
46720;DHT22;32452;51.382;-0.002;2023-08-31T01:08:21;14.10;91.30
46720;DHT22;32452;51.382;-0.002;2023-08-31T01:11:24;14.00;91.30
46720;DHT22;32452;51.382;-0.002;2023-08-31T01:14:16;14.00;91.40
46720;DHT22;32452;51.382;-0.002;2023-08-31T01:17:08;13.90;91.60
46720;DHT22;32452;51.382;-0.002;2023-08-31T01:19:57;13.90;91.70
46720;DHT22;32452;51.382;-0.002;2023-08-31T01:22:54;13.90;91.80
46720;DHT22;32452;51.382;-0.002;2023-08-31T01:25:40;13.90;91.90
46720;DHT22;32452;51.382;-0.002;2023-08-31T01:28:28;13.80;91.90
46720;DHT22;32452;51.382;-0.002;2023-08-31T01:31:14;13.90;92.00
46720;DHT22;32452;51.382;-0.002;2023-08-31T01:34:03;13.90;92.10
46720;DHT22;32452;51.382;-0.002;2023-08-31T01:36:56;13.80;92.10
46720;DHT22;32452;51.382;-0.002;2023-08-31T01:39:49;13.80;92.20
46720;DHT22;32452;51.382;-0.002;2023-08-31T01:42:38;13.80;92.30
46720;DHT22;32452;51.382;-0.002;2023-08-31T01:45:25;13.80;92.40
46720;DHT22;32452;51.382;-0.002;2023-08-31T01:48:11;13.70;92.40
46720;DHT22;32452;51.382;-0.002;2023-08-31T01:50:58;13.70;92.50
46720;DHT22;32452;51.382;-0.002;2023-08-31T01:53:45;13.70;92.60
46720;DHT22;32452;51.382;-0.002;2023-08-31T01:56:30;13.70;92.60
46720;DHT22;32452;51.382;-0.002;2023-08-31T01:59:16;13.70;92.70
46720;DHT22;32452;51.382;-0.002;2023-08-31T02:02:01;13.60;93.10
46720;DHT22;32452;51.382;-0.002;2023-08-31T02:04:47;13.60;92.90
46720;DHT22;32452;51.382;-0.002;2023-08-31T02:07:33;13.60;92.90
46720;DHT22;32452;51.382;-0.002;2023-08-31T02:10:19;13.60;93.00
46720;DHT22;32452;51.382;-0.002;2023-08-31T02:13:04;13.60;93.10
46720;DHT22;32452;51.382;-0.002;2023-08-31T02:15:54;13.50;93.20
46720;DHT22;32452;51.382;-0.002;2023-08-31T02:18:39;13.50;93.20
46720;DHT22;32452;51.382;-0.002;2023-08-31T02:21:24;13.50;93.30
46720;DHT22;32452;51.382;-0.002;2023-08-31T02:24:10;13.50;93.30
46720;DHT22;32452;51.382;-0.002;2023-08-31T02:26:56;13.40;93.40
46720;DHT22;32452;51.382;-0.002;2023-08-31T02:29:42;13.50;93.50
46720;DHT22;32452;51.382;-0.002;2023-08-31T02:32:27;13.40;93.50
46720;DHT22;32452;51.382;-0.002;2023-08-31T02:35:13;13.40;93.60
46720;DHT22;32452;51.382;-0.002;2023-08-31T02:37:58;13.40;93.60
46720;DHT22;32452;51.382;-0.002;2023-08-31T02:40:46;13.40;93.60
46720;DHT22;32452;51.382;-0.002;2023-08-31T02:43:32;13.30;93.70
46720;DHT22;32452;51.382;-0.002;2023-08-31T02:46:18;13.30;93.70
46720;DHT22;32452;51.382;-0.002;2023-08-31T02:49:04;13.30;93.80
46720;DHT22;32452;51.382;-0.002;2023-08-31T02:51:49;13.30;93.90
46720;DHT22;32452;51.382;-0.002;2023-08-31T02:54:35;13.20;94.00
46720;DHT22;32452;51.382;-0.002;2023-08-31T02:57:21;13.30;94.10
46720;DHT22;32452;51.382;-0.002;2023-08-31T03:00:07;13.20;94.10
46720;DHT22;32452;51.382;-0.002;2023-08-31T03:02:58;13.20;94.20
46720;DHT22;32452;51.382;-0.002;2023-08-31T03:05:45;13.20;94.30
46720;DHT22;32452;51.382;-0.002;2023-08-31T03:08:31;13.30;94.40
46720;DHT22;32452;51.382;-0.002;2023-08-31T03:11:16;13.30;94.40
46720;DHT22;32452;51.382;-0.002;2023-08-31T03:14:02;13.30;94.50
46720;DHT22;32452;51.382;-0.002;2023-08-31T03:16:47;13.30;94.50
46720;DHT22;32452;51.382;-0.002;2023-08-31T03:19:34;13.20;94.60
46720;DHT22;32452;51.382;-0.002;2023-08-31T03:22:19;13.30;94.70
46720;DHT22;32452;51.382;-0.002;2023-08-31T03:25:05;13.20;94.70
46720;DHT22;32452;51.382;-0.002;2023-08-31T03:27:51;13.20;94.80
46720;DHT22;32452;51.382;-0.002;2023-08-31T03:30:37;13.20;94.90
46720;DHT22;32452;51.382;-0.002;2023-08-31T03:33:22;13.20;94.90
46720;DHT22;32452;51.382;-0.002;2023-08-31T03:36:08;13.20;95.10
46720;DHT22;32452;51.382;-0.002;2023-08-31T03:38:54;13.20;95.10
46720;DHT22;32452;51.382;-0.002;2023-08-31T03:41:39;13.20;95.20
46720;DHT22;32452;51.382;-0.002;2023-08-31T03:44:25;13.20;95.20
46720;DHT22;32452;51.382;-0.002;2023-08-31T03:47:11;13.20;95.20
46720;DHT22;32452;51.382;-0.002;2023-08-31T03:49:56;13.10;95.20
46720;DHT22;32452;51.382;-0.002;2023-08-31T03:52:42;13.10;95.20
46720;DHT22;32452;51.382;-0.002;2023-08-31T03:55:27;13.10;95.30
46720;DHT22;32452;51.382;-0.002;2023-08-31T03:58:13;13.10;95.30
46720;DHT22;32452;51.382;-0.002;2023-08-31T04:00:59;13.10;95.40
46720;DHT22;32452;51.382;-0.002;2023-08-31T04:03:44;13.00;95.40
46720;DHT22;32452;51.382;-0.002;2023-08-31T04:06:30;13.10;95.40
46720;DHT22;32452;51.382;-0.002;2023-08-31T04:09:16;13.00;95.40
46720;DHT22;32452;51.382;-0.002;2023-08-31T04:12:02;13.00;95.50
46720;DHT22;32452;51.382;-0.002;2023-08-31T04:14:48;13.00;95.50
46720;DHT22;32452;51.382;-0.002;2023-08-31T04:17:34;13.00;95.60
46720;DHT22;32452;51.382;-0.002;2023-08-31T04:20:19;12.90;95.60
46720;DHT22;32452;51.382;-0.002;2023-08-31T04:23:05;12.90;95.70
46720;DHT22;32452;51.382;-0.002;2023-08-31T04:25:51;12.90;95.80
46720;DHT22;32452;51.382;-0.002;2023-08-31T04:28:37;12.90;95.80
46720;DHT22;32452;51.382;-0.002;2023-08-31T04:31:22;12.90;95.90
46720;DHT22;32452;51.382;-0.002;2023-08-31T04:34:08;12.90;96.00
46720;DHT22;32452;51.382;-0.002;2023-08-31T04:36:54;12.90;96.00
46720;DHT22;32452;51.382;-0.002;2023-08-31T04:39:40;12.90;96.10
46720;DHT22;32452;51.382;-0.002;2023-08-31T04:42:25;12.90;96.10
46720;DHT22;32452;51.382;-0.002;2023-08-31T04:45:11;12.90;96.20
46720;DHT22;32452;51.382;-0.002;2023-08-31T04:47:57;12.90;96.30
46720;DHT22;32452;51.382;-0.002;2023-08-31T04:50:43;12.90;96.40
46720;DHT22;32452;51.382;-0.002;2023-08-31T04:53:29;12.90;96.50
46720;DHT22;32452;51.382;-0.002;2023-08-31T04:56:18;12.80;96.50
46720;DHT22;32452;51.382;-0.002;2023-08-31T04:59:03;12.80;96.50
46720;DHT22;32452;51.382;-0.002;2023-08-31T05:01:49;12.90;96.60
46720;DHT22;32452;51.382;-0.002;2023-08-31T05:04:34;12.90;96.70
46720;DHT22;32452;51.382;-0.002;2023-08-31T05:07:20;12.90;96.70
46720;DHT22;32452;51.382;-0.002;2023-08-31T05:10:06;12.90;96.80
46720;DHT22;32452;51.382;-0.002;2023-08-31T05:12:52;12.90;96.90
46720;DHT22;32452;51.382;-0.002;2023-08-31T05:15:38;12.90;96.90
46720;DHT22;32452;51.382;-0.002;2023-08-31T05:18:23;12.90;96.90
46720;DHT22;32452;51.382;-0.002;2023-08-31T05:21:09;12.90;97.00
46720;DHT22;32452;51.382;-0.002;2023-08-31T05:23:55;13.00;97.00
46720;DHT22;32452;51.382;-0.002;2023-08-31T05:26:40;13.00;97.00
46720;DHT22;32452;51.382;-0.002;2023-08-31T05:29:26;13.00;97.10
46720;DHT22;32452;51.382;-0.002;2023-08-31T05:32:12;13.00;97.10
46720;DHT22;32452;51.382;-0.002;2023-08-31T05:34:57;13.00;97.10
46720;DHT22;32452;51.382;-0.002;2023-08-31T05:37:44;13.10;97.10
46720;DHT22;32452;51.382;-0.002;2023-08-31T05:40:30;13.10;97.10
46720;DHT22;32452;51.382;-0.002;2023-08-31T05:43:16;13.20;97.10
46720;DHT22;32452;51.382;-0.002;2023-08-31T05:46:01;13.10;97.10
46720;DHT22;32452;51.382;-0.002;2023-08-31T05:48:47;13.20;97.20
46720;DHT22;32452;51.382;-0.002;2023-08-31T05:51:33;13.20;97.20
46720;DHT22;32452;51.382;-0.002;2023-08-31T05:54:18;13.20;97.20
46720;DHT22;32452;51.382;-0.002;2023-08-31T05:57:04;13.30;97.20
46720;DHT22;32452;51.382;-0.002;2023-08-31T05:59:50;13.30;97.20
46720;DHT22;32452;51.382;-0.002;2023-08-31T06:02:36;13.40;97.20
46720;DHT22;32452;51.382;-0.002;2023-08-31T06:05:22;13.40;97.20
46720;DHT22;32452;51.382;-0.002;2023-08-31T06:08:07;13.50;97.20
46720;DHT22;32452;51.382;-0.002;2023-08-31T06:10:53;13.50;97.10
46720;DHT22;32452;51.382;-0.002;2023-08-31T06:13:39;13.60;97.10
46720;DHT22;32452;51.382;-0.002;2023-08-31T06:16:25;13.60;97.00
46720;DHT22;32452;51.382;-0.002;2023-08-31T06:19:11;13.60;97.00
46720;DHT22;32452;51.382;-0.002;2023-08-31T06:22:00;13.70;97.00
46720;DHT22;32452;51.382;-0.002;2023-08-31T06:24:46;13.70;97.00
46720;DHT22;32452;51.382;-0.002;2023-08-31T06:27:32;13.70;97.00
46720;DHT22;32452;51.382;-0.002;2023-08-31T06:30:18;13.70;97.30
46720;DHT22;32452;51.382;-0.002;2023-08-31T06:33:04;13.70;97.00
46720;DHT22;32452;51.382;-0.002;2023-08-31T06:35:50;13.80;97.10
46720;DHT22;32452;51.382;-0.002;2023-08-31T06:38:37;13.90;97.10
46720;DHT22;32452;51.382;-0.002;2023-08-31T06:41:22;14.00;97.10
46720;DHT22;32452;51.382;-0.002;2023-08-31T06:44:08;14.00;97.10
46720;DHT22;32452;51.382;-0.002;2023-08-31T06:46:53;14.10;97.10
46720;DHT22;32452;51.382;-0.002;2023-08-31T06:49:39;14.20;97.10
46720;DHT22;32452;51.382;-0.002;2023-08-31T06:52:26;14.30;97.00
46720;DHT22;32452;51.382;-0.002;2023-08-31T06:55:16;14.30;97.00
46720;DHT22;32452;51.382;-0.002;2023-08-31T06:58:04;14.30;96.90
46720;DHT22;32452;51.382;-0.002;2023-08-31T07:00:51;14.40;97.00
46720;DHT22;32452;51.382;-0.002;2023-08-31T07:03:37;14.40;97.00
46720;DHT22;32452;51.382;-0.002;2023-08-31T07:06:23;14.50;97.00
46720;DHT22;32452;51.382;-0.002;2023-08-31T07:09:08;14.50;96.90
46720;DHT22;32452;51.382;-0.002;2023-08-31T07:11:54;14.50;96.90
46720;DHT22;32452;51.382;-0.002;2023-08-31T07:14:40;14.60;96.90
46720;DHT22;32452;51.382;-0.002;2023-08-31T07:17:26;14.70;96.90
46720;DHT22;32452;51.382;-0.002;2023-08-31T07:20:12;14.80;96.70
46720;DHT22;32452;51.382;-0.002;2023-08-31T07:22:57;14.90;96.60
46720;DHT22;32452;51.382;-0.002;2023-08-31T07:25:44;15.00;96.50
46720;DHT22;32452;51.382;-0.002;2023-08-31T07:28:30;15.00;96.50
46720;DHT22;32452;51.382;-0.002;2023-08-31T07:31:16;15.10;96.40
46720;DHT22;32452;51.382;-0.002;2023-08-31T07:34:02;15.10;96.30
46720;DHT22;32452;51.382;-0.002;2023-08-31T07:36:49;15.20;96.30
46720;DHT22;32452;51.382;-0.002;2023-08-31T07:39:35;15.30;96.20
46720;DHT22;32452;51.382;-0.002;2023-08-31T07:42:20;15.50;96.20
46720;DHT22;32452;51.382;-0.002;2023-08-31T07:45:07;15.70;96.20
46720;DHT22;32452;51.382;-0.002;2023-08-31T07:47:52;15.90;96.00
46720;DHT22;32452;51.382;-0.002;2023-08-31T07:50:40;16.30;95.80
46720;DHT22;32452;51.382;-0.002;2023-08-31T07:53:29;16.60;95.30
46720;DHT22;32452;51.382;-0.002;2023-08-31T07:56:15;16.90;94.80
46720;DHT22;32452;51.382;-0.002;2023-08-31T07:59:00;17.10;94.40
46720;DHT22;32452;51.382;-0.002;2023-08-31T08:01:47;17.20;94.10
46720;DHT22;32452;51.382;-0.002;2023-08-31T08:04:33;17.40;93.80
46720;DHT22;32452;51.382;-0.002;2023-08-31T08:07:19;17.50;93.50
46720;DHT22;32452;51.382;-0.002;2023-08-31T08:10:06;17.50;93.30
46720;DHT22;32452;51.382;-0.002;2023-08-31T08:12:55;17.60;92.90
46720;DHT22;32452;51.382;-0.002;2023-08-31T08:15:41;17.60;92.70
46720;DHT22;32452;51.382;-0.002;2023-08-31T08:18:27;17.50;92.50
46720;DHT22;32452;51.382;-0.002;2023-08-31T08:21:13;17.40;92.40
46720;DHT22;32452;51.382;-0.002;2023-08-31T08:24:03;17.30;92.20
46720;DHT22;32452;51.382;-0.002;2023-08-31T08:26:49;17.20;92.10
46720;DHT22;32452;51.382;-0.002;2023-08-31T08:29:35;17.20;92.00
46720;DHT22;32452;51.382;-0.002;2023-08-31T08:32:20;17.10;91.90
46720;DHT22;32452;51.382;-0.002;2023-08-31T08:35:07;17.10;91.70
46720;DHT22;32452;51.382;-0.002;2023-08-31T08:37:52;17.10;91.50
46720;DHT22;32452;51.382;-0.002;2023-08-31T08:40:38;17.10;91.50
46720;DHT22;32452;51.382;-0.002;2023-08-31T08:43:28;17.20;91.50
46720;DHT22;32452;51.382;-0.002;2023-08-31T08:46:17;17.20;91.40
46720;DHT22;32452;51.382;-0.002;2023-08-31T08:49:03;17.20;91.10
46720;DHT22;32452;51.382;-0.002;2023-08-31T08:51:51;17.30;91.00
46720;DHT22;32452;51.382;-0.002;2023-08-31T08:54:37;17.30;91.00
46720;DHT22;32452;51.382;-0.002;2023-08-31T08:57:24;17.30;90.80
46720;DHT22;32452;51.382;-0.002;2023-08-31T09:00:10;17.30;90.70
46720;DHT22;32452;51.382;-0.002;2023-08-31T09:02:58;17.30;90.60
46720;DHT22;32452;51.382;-0.002;2023-08-31T09:05:44;17.30;90.40
46720;DHT22;32452;51.382;-0.002;2023-08-31T09:08:30;17.30;90.20
46720;DHT22;32452;51.382;-0.002;2023-08-31T09:11:22;17.20;90.00
46720;DHT22;32452;51.382;-0.002;2023-08-31T09:14:19;17.20;89.90
46720;DHT22;32452;51.382;-0.002;2023-08-31T09:17:04;17.10;89.80
46720;DHT22;32452;51.382;-0.002;2023-08-31T09:20:02;17.10;90.00
46720;DHT22;32452;51.382;-0.002;2023-08-31T09:22:49;17.00;90.30
46720;DHT22;32452;51.382;-0.002;2023-08-31T09:25:48;17.00;90.70
46720;DHT22;32452;51.382;-0.002;2023-08-31T09:28:43;17.00;91.10
46720;DHT22;32452;51.382;-0.002;2023-08-31T09:31:31;17.00;91.00
46720;DHT22;32452;51.382;-0.002;2023-08-31T09:34:18;16.90;91.10
46720;DHT22;32452;51.382;-0.002;2023-08-31T09:37:05;16.90;91.30
46720;DHT22;32452;51.382;-0.002;2023-08-31T09:39:51;16.80;91.50
46720;DHT22;32452;51.382;-0.002;2023-08-31T09:42:38;16.80;92.00
46720;DHT22;32452;51.382;-0.002;2023-08-31T09:45:29;16.80;92.30
46720;DHT22;32452;51.382;-0.002;2023-08-31T09:48:31;16.80;92.50
46720;DHT22;32452;51.382;-0.002;2023-08-31T09:51:19;16.80;92.60
46720;DHT22;32452;51.382;-0.002;2023-08-31T09:54:09;16.80;92.80
46720;DHT22;32452;51.382;-0.002;2023-08-31T09:56:59;16.80;93.10
46720;DHT22;32452;51.382;-0.002;2023-08-31T09:59:47;16.80;93.40
46720;DHT22;32452;51.382;-0.002;2023-08-31T10:02:32;16.80;93.50
46720;DHT22;32452;51.382;-0.002;2023-08-31T10:05:18;16.80;93.40
46720;DHT22;32452;51.382;-0.002;2023-08-31T10:08:05;16.80;93.40
46720;DHT22;32452;51.382;-0.002;2023-08-31T10:10:50;16.70;93.50
46720;DHT22;32452;51.382;-0.002;2023-08-31T10:13:39;16.70;93.80
46720;DHT22;32452;51.382;-0.002;2023-08-31T10:16:27;16.80;94.20
46720;DHT22;32452;51.382;-0.002;2023-08-31T10:19:12;16.80;94.50
46720;DHT22;32452;51.382;-0.002;2023-08-31T10:21:58;16.90;94.70
46720;DHT22;32452;51.382;-0.002;2023-08-31T10:25:06;16.90;94.70
46720;DHT22;32452;51.382;-0.002;2023-08-31T10:27:52;17.00;95.10
46720;DHT22;32452;51.382;-0.002;2023-08-31T10:30:39;17.20;95.30
46720;DHT22;32452;51.382;-0.002;2023-08-31T10:33:25;17.50;95.40
46720;DHT22;32452;51.382;-0.002;2023-08-31T10:36:18;17.80;95.10
46720;DHT22;32452;51.382;-0.002;2023-08-31T10:39:24;18.30;94.90
46720;DHT22;32452;51.382;-0.002;2023-08-31T10:42:23;19.00;94.60
46720;DHT22;32452;51.382;-0.002;2023-08-31T10:45:09;19.50;94.00
46720;DHT22;32452;51.382;-0.002;2023-08-31T10:48:00;19.80;93.40
46720;DHT22;32452;51.382;-0.002;2023-08-31T10:50:47;20.30;92.40
46720;DHT22;32452;51.382;-0.002;2023-08-31T10:53:35;20.50;92.10
46720;DHT22;32452;51.382;-0.002;2023-08-31T10:56:29;20.80;92.10
46720;DHT22;32452;51.382;-0.002;2023-08-31T10:59:15;21.10;91.60
46720;DHT22;32452;51.382;-0.002;2023-08-31T11:02:01;21.10;90.80
46720;DHT22;32452;51.382;-0.002;2023-08-31T11:05:09;21.00;90.30
46720;DHT22;32452;51.382;-0.002;2023-08-31T11:07:55;20.80;90.00
46720;DHT22;32452;51.382;-0.002;2023-08-31T11:10:45;20.70;90.00
46720;DHT22;32452;51.382;-0.002;2023-08-31T11:13:31;20.70;89.60
46720;DHT22;32452;51.382;-0.002;2023-08-31T11:16:17;20.50;89.30
46720;DHT22;32452;51.382;-0.002;2023-08-31T11:19:02;20.40;89.40
46720;DHT22;32452;51.382;-0.002;2023-08-31T11:21:49;20.20;88.70
46720;DHT22;32452;51.382;-0.002;2023-08-31T11:24:35;19.90;89.20
46720;DHT22;32452;51.382;-0.002;2023-08-31T11:27:21;19.70;89.10
46720;DHT22;32452;51.382;-0.002;2023-08-31T11:30:14;19.50;89.40
46720;DHT22;32452;51.382;-0.002;2023-08-31T11:33:08;19.40;90.00
46720;DHT22;32452;51.382;-0.002;2023-08-31T11:35:54;19.30;90.10
46720;DHT22;32452;51.382;-0.002;2023-08-31T11:38:40;19.30;90.10
46720;DHT22;32452;51.382;-0.002;2023-08-31T11:41:31;19.20;90.00
46720;DHT22;32452;51.382;-0.002;2023-08-31T11:44:17;19.30;90.00
46720;DHT22;32452;51.382;-0.002;2023-08-31T11:47:03;19.30;90.00
46720;DHT22;32452;51.382;-0.002;2023-08-31T11:49:49;19.40;89.40
46720;DHT22;32452;51.382;-0.002;2023-08-31T11:52:35;19.50;89.20
46720;DHT22;32452;51.382;-0.002;2023-08-31T11:55:21;19.60;88.40
46720;DHT22;32452;51.382;-0.002;2023-08-31T11:58:08;19.60;88.70
46720;DHT22;32452;51.382;-0.002;2023-08-31T12:00:58;19.60;88.90
46720;DHT22;32452;51.382;-0.002;2023-08-31T12:03:44;19.80;88.80
46720;DHT22;32452;51.382;-0.002;2023-08-31T12:06:35;19.80;88.50
46720;DHT22;32452;51.382;-0.002;2023-08-31T12:09:20;19.90;87.60
46720;DHT22;32452;51.382;-0.002;2023-08-31T12:12:07;19.90;86.80
46720;DHT22;32452;51.382;-0.002;2023-08-31T12:14:53;20.00;86.10
46720;DHT22;32452;51.382;-0.002;2023-08-31T12:17:39;20.00;86.10
46720;DHT22;32452;51.382;-0.002;2023-08-31T12:20:25;19.90;86.10
46720;DHT22;32452;51.382;-0.002;2023-08-31T12:23:14;19.80;85.40
46720;DHT22;32452;51.382;-0.002;2023-08-31T12:26:05;19.70;84.60
46720;DHT22;32452;51.382;-0.002;2023-08-31T12:28:53;19.60;83.80
46720;DHT22;32452;51.382;-0.002;2023-08-31T12:31:38;19.50;84.10
46720;DHT22;32452;51.382;-0.002;2023-08-31T12:34:24;19.40;84.30
46720;DHT22;32452;51.382;-0.002;2023-08-31T12:37:11;19.30;84.50
46720;DHT22;32452;51.382;-0.002;2023-08-31T12:39:57;19.30;84.60
46720;DHT22;32452;51.382;-0.002;2023-08-31T12:42:43;19.30;84.60
46720;DHT22;32452;51.382;-0.002;2023-08-31T12:45:29;19.20;85.20
46720;DHT22;32452;51.382;-0.002;2023-08-31T12:48:14;19.20;85.30
46720;DHT22;32452;51.382;-0.002;2023-08-31T12:51:00;19.30;85.40
46720;DHT22;32452;51.382;-0.002;2023-08-31T12:53:45;19.30;85.50
46720;DHT22;32452;51.382;-0.002;2023-08-31T12:56:33;19.30;85.90
46720;DHT22;32452;51.382;-0.002;2023-08-31T12:59:19;19.20;85.90
46720;DHT22;32452;51.382;-0.002;2023-08-31T13:02:05;19.10;86.30
46720;DHT22;32452;51.382;-0.002;2023-08-31T13:04:56;19.00;86.90
46720;DHT22;32452;51.382;-0.002;2023-08-31T13:07:41;18.90;87.80
46720;DHT22;32452;51.382;-0.002;2023-08-31T13:10:27;18.80;88.60
46720;DHT22;32452;51.382;-0.002;2023-08-31T13:13:13;18.70;89.30
46720;DHT22;32452;51.382;-0.002;2023-08-31T13:15:59;18.60;90.20
46720;DHT22;32452;51.382;-0.002;2023-08-31T13:18:44;18.70;89.90
46720;DHT22;32452;51.382;-0.002;2023-08-31T13:21:30;18.80;89.80
46720;DHT22;32452;51.382;-0.002;2023-08-31T13:24:15;18.80;89.60
46720;DHT22;32452;51.382;-0.002;2023-08-31T13:27:02;18.80;89.10
46720;DHT22;32452;51.382;-0.002;2023-08-31T13:29:47;18.80;88.90
46720;DHT22;32452;51.382;-0.002;2023-08-31T13:32:34;18.70;89.20
46720;DHT22;32452;51.382;-0.002;2023-08-31T13:35:20;18.60;89.60
46720;DHT22;32452;51.382;-0.002;2023-08-31T13:38:05;18.50;90.10
46720;DHT22;32452;51.382;-0.002;2023-08-31T13:40:55;18.50;90.20
46720;DHT22;32452;51.382;-0.002;2023-08-31T13:43:42;18.40;90.30
46720;DHT22;32452;51.382;-0.002;2023-08-31T13:46:27;18.40;90.40
46720;DHT22;32452;51.382;-0.002;2023-08-31T13:49:13;18.40;90.60
46720;DHT22;32452;51.382;-0.002;2023-08-31T13:52:00;18.30;90.90
46720;DHT22;32452;51.382;-0.002;2023-08-31T13:54:46;18.20;91.30
46720;DHT22;32452;51.382;-0.002;2023-08-31T13:57:31;18.00;92.10
46720;DHT22;32452;51.382;-0.002;2023-08-31T14:00:17;18.00;92.70
46720;DHT22;32452;51.382;-0.002;2023-08-31T14:03:04;18.00;93.10
46720;DHT22;32452;51.382;-0.002;2023-08-31T14:05:50;18.10;93.40
46720;DHT22;32452;51.382;-0.002;2023-08-31T14:08:36;18.10;93.40
46720;DHT22;32452;51.382;-0.002;2023-08-31T14:11:22;18.20;93.20
46720;DHT22;32452;51.382;-0.002;2023-08-31T14:14:07;18.20;93.20
46720;DHT22;32452;51.382;-0.002;2023-08-31T14:16:57;18.20;93.20
46720;DHT22;32452;51.382;-0.002;2023-08-31T14:19:43;18.20;93.10
46720;DHT22;32452;51.382;-0.002;2023-08-31T14:22:28;18.30;93.10
46720;DHT22;32452;51.382;-0.002;2023-08-31T14:25:14;18.30;93.00
46720;DHT22;32452;51.382;-0.002;2023-08-31T14:28:00;18.40;92.80
46720;DHT22;32452;51.382;-0.002;2023-08-31T14:30:46;18.40;92.60
46720;DHT22;32452;51.382;-0.002;2023-08-31T14:33:31;18.40;92.40
46720;DHT22;32452;51.382;-0.002;2023-08-31T14:36:17;18.30;92.00
46720;DHT22;32452;51.382;-0.002;2023-08-31T14:39:03;18.10;91.60
46720;DHT22;32452;51.382;-0.002;2023-08-31T14:41:48;18.10;91.50
46720;DHT22;32452;51.382;-0.002;2023-08-31T14:44:34;18.00;91.40
46720;DHT22;32452;51.382;-0.002;2023-08-31T14:47:19;18.00;91.30
46720;DHT22;32452;51.382;-0.002;2023-08-31T14:50:05;18.00;91.30
46720;DHT22;32452;51.382;-0.002;2023-08-31T14:52:51;17.90;91.40
46720;DHT22;32452;51.382;-0.002;2023-08-31T14:55:37;17.90;91.30
46720;DHT22;32452;51.382;-0.002;2023-08-31T14:58:22;17.90;91.20
46720;DHT22;32452;51.382;-0.002;2023-08-31T15:01:08;17.90;91.20
46720;DHT22;32452;51.382;-0.002;2023-08-31T15:03:54;17.90;91.20
46720;DHT22;32452;51.382;-0.002;2023-08-31T15:06:39;18.00;91.20
46720;DHT22;32452;51.382;-0.002;2023-08-31T15:09:25;18.00;91.20
46720;DHT22;32452;51.382;-0.002;2023-08-31T15:12:11;17.90;91.10
46720;DHT22;32452;51.382;-0.002;2023-08-31T15:14:56;17.90;91.20
46720;DHT22;32452;51.382;-0.002;2023-08-31T15:17:42;17.90;91.30
46720;DHT22;32452;51.382;-0.002;2023-08-31T15:20:28;17.90;91.40
46720;DHT22;32452;51.382;-0.002;2023-08-31T15:23:14;17.80;91.40
46720;DHT22;32452;51.382;-0.002;2023-08-31T15:26:01;17.80;91.40
46720;DHT22;32452;51.382;-0.002;2023-08-31T15:28:48;17.80;91.70
46720;DHT22;32452;51.382;-0.002;2023-08-31T15:31:33;17.80;91.70
46720;DHT22;32452;51.382;-0.002;2023-08-31T15:34:19;17.70;91.70
46720;DHT22;32452;51.382;-0.002;2023-08-31T15:37:04;17.70;91.80
46720;DHT22;32452;51.382;-0.002;2023-08-31T15:39:51;17.60;91.90
46720;DHT22;32452;51.382;-0.002;2023-08-31T15:42:36;17.60;92.10
46720;DHT22;32452;51.382;-0.002;2023-08-31T15:45:22;17.50;92.10
46720;DHT22;32452;51.382;-0.002;2023-08-31T15:48:08;17.50;92.20
46720;DHT22;32452;51.382;-0.002;2023-08-31T15:50:58;17.40;92.20
46720;DHT22;32452;51.382;-0.002;2023-08-31T15:53:43;17.40;92.30
46720;DHT22;32452;51.382;-0.002;2023-08-31T15:56:29;17.40;92.40
46720;DHT22;32452;51.382;-0.002;2023-08-31T15:59:15;17.40;92.40
46720;DHT22;32452;51.382;-0.002;2023-08-31T16:02:01;17.50;92.50
46720;DHT22;32452;51.382;-0.002;2023-08-31T16:04:46;17.50;92.60
46720;DHT22;32452;51.382;-0.002;2023-08-31T16:07:34;17.60;92.50
46720;DHT22;32452;51.382;-0.002;2023-08-31T16:10:20;17.60;92.50
46720;DHT22;32452;51.382;-0.002;2023-08-31T16:13:05;17.60;92.50
46720;DHT22;32452;51.382;-0.002;2023-08-31T16:15:51;17.60;92.50
46720;DHT22;32452;51.382;-0.002;2023-08-31T16:18:37;17.60;92.60
46720;DHT22;32452;51.382;-0.002;2023-08-31T16:21:22;17.60;92.70
46720;DHT22;32452;51.382;-0.002;2023-08-31T16:24:08;17.50;92.80
46720;DHT22;32452;51.382;-0.002;2023-08-31T16:26:54;17.40;93.00
46720;DHT22;32452;51.382;-0.002;2023-08-31T16:29:39;17.30;93.10
46720;DHT22;32452;51.382;-0.002;2023-08-31T16:32:25;17.30;93.30
46720;DHT22;32452;51.382;-0.002;2023-08-31T16:35:14;17.20;93.40
46720;DHT22;32452;51.382;-0.002;2023-08-31T16:37:59;17.10;93.70
46720;DHT22;32452;51.382;-0.002;2023-08-31T16:40:45;17.00;93.90
46720;DHT22;32452;51.382;-0.002;2023-08-31T16:43:30;17.00;94.10
46720;DHT22;32452;51.382;-0.002;2023-08-31T16:46:16;17.00;94.30
46720;DHT22;32452;51.382;-0.002;2023-08-31T16:49:02;17.00;94.30
46720;DHT22;32452;51.382;-0.002;2023-08-31T16:51:48;17.00;94.40
46720;DHT22;32452;51.382;-0.002;2023-08-31T16:54:33;16.90;94.50
46720;DHT22;32452;51.382;-0.002;2023-08-31T16:57:19;16.90;94.60
46720;DHT22;32452;51.382;-0.002;2023-08-31T17:00:07;16.80;94.70
46720;DHT22;32452;51.382;-0.002;2023-08-31T17:02:55;16.80;94.80
46720;DHT22;32452;51.382;-0.002;2023-08-31T17:05:41;16.80;95.00
46720;DHT22;32452;51.382;-0.002;2023-08-31T17:08:27;16.80;95.10
46720;DHT22;32452;51.382;-0.002;2023-08-31T17:11:12;16.80;95.20
46720;DHT22;32452;51.382;-0.002;2023-08-31T17:13:58;16.80;95.30
46720;DHT22;32452;51.382;-0.002;2023-08-31T17:16:44;16.80;95.30
46720;DHT22;32452;51.382;-0.002;2023-08-31T17:19:30;16.80;95.40